Accueil
METAR-TAF:

METAR-TAF

Aéroports :

Granges, Suisse

Aéroport de Granges

latitude: 47-10-53N, longitude: 007-24-59E, altitude: 430 m

Observation

Le bulletin a été fait il y a 25 minutes, à 01:20 UTC
Vent calme
Température 5°C
Humidité 93%
Pression 1027 hPa
Visibilité: 0200 m
brouillard

METAR: LSZG 170120Z AUTO 00000KT 0200 FG VV001 05/04 Q1027

Heure: 03:45 (01:45 UTC)

Prévision

Le bulletin a été fait il y a 11 heures et 20 minutes, à 14:25 UTC
Prévision valable du 16 à 15 UTC au 16 à 24 UTC
Vent 3 kt de direction variable
Visibilité 10 km ou plus
pas de nuages en-dessous de 1500 mètres et pas de cumulonimbus.
Evoluant progressivement
du 16 à 21 UTC au 16 à 24 UTC
Visibilité: 4500 m
Brouillard mince

TAF: LSZG 161425Z 1615/1624 VRB03KT CAVOK BECMG 1621/1624 4500 MIFG NSC

Observations et prévisions météorologiques de plus de 4000 aéroports (messages METAR et TAF).

Les stations disponibles sont représentées par des disques jaunes et rouges sur la carte.

Passer la souris dessus pour voir le nom de la station.

Cliquer dessus pour voir les observations et prévisions météorologiques.

Pour changer de carte: cliquez sur les boutons verts avec une croix noire pour zoomer, sur le bouton vert avec un tiret pour effectuer un zoom arrière, ou sur les flèches vertes pour les cartes adjacentes.


METAR-TAF: